createdAt,value
2018-10-17T00:01:17.346Z,99.90
2018-10-17T00:03:45.649Z,99.90
2018-10-17T00:06:14.081Z,99.90
2018-10-17T00:08:42.677Z,99.90
2018-10-17T00:11:11.166Z,99.90
2018-10-17T00:13:39.523Z,99.90
2018-10-17T00:16:07.978Z,99.90
2018-10-17T00:18:36.454Z,99.90
2018-10-17T00:21:05.342Z,99.90
2018-10-17T00:23:34.085Z,99.90
2018-10-17T00:26:03.191Z,99.90
2018-10-17T00:28:31.601Z,99.90
2018-10-17T00:31:00.040Z,99.90
2018-10-17T00:33:28.437Z,99.90
2018-10-17T00:35:56.882Z,99.90
2018-10-17T00:38:25.338Z,99.90
2018-10-17T00:40:53.780Z,99.90
2018-10-17T00:43:22.190Z,99.90
2018-10-17T00:45:50.619Z,99.90
2018-10-17T00:48:19.075Z,99.90
2018-10-17T00:50:47.518Z,99.90
2018-10-17T00:53:16.019Z,99.90
2018-10-17T00:55:44.329Z,99.90
2018-10-17T00:58:12.704Z,99.90
2018-10-17T01:00:41.136Z,99.90
2018-10-17T01:03:09.574Z,99.90
2018-10-17T01:05:37.974Z,99.90
2018-10-17T01:08:06.434Z,99.90
2018-10-17T01:10:34.810Z,99.90
2018-10-17T01:13:03.240Z,99.90
2018-10-17T01:15:31.638Z,99.90
2018-10-17T01:18:00.064Z,99.90
2018-10-17T01:20:28.455Z,99.90
2018-10-17T01:22:56.928Z,99.90
2018-10-17T01:25:25.305Z,99.90
2018-10-17T01:27:53.718Z,99.90
2018-10-17T01:30:22.211Z,99.90
2018-10-17T01:32:50.610Z,99.90
2018-10-17T01:35:19.017Z,99.90
2018-10-17T01:37:47.613Z,99.90
2018-10-17T01:40:15.993Z,99.90
2018-10-17T01:42:44.398Z,99.90
2018-10-17T01:45:12.785Z,99.90
2018-10-17T01:47:41.366Z,99.90
2018-10-17T01:50:09.900Z,99.90
2018-10-17T01:52:38.439Z,99.90
2018-10-17T01:55:07.355Z,99.90
2018-10-17T01:57:43.487Z,99.90
2018-10-17T02:00:11.856Z,99.90
2018-10-17T02:02:40.246Z,99.90
2018-10-17T02:05:08.700Z,99.90
2018-10-17T02:07:37.045Z,99.90
2018-10-17T02:10:05.623Z,99.90
2018-10-17T02:12:33.978Z,99.90
2018-10-17T02:15:02.343Z,99.90
2018-10-17T02:17:30.711Z,99.90
2018-10-17T02:19:59.192Z,99.90
2018-10-17T02:22:27.578Z,99.90
2018-10-17T02:24:55.977Z,99.90
2018-10-17T02:27:24.423Z,99.90
2018-10-17T02:29:52.832Z,99.90
2018-10-17T02:32:21.179Z,99.90
2018-10-17T02:34:54.944Z,99.90
2018-10-17T02:37:23.306Z,99.90
2018-10-17T02:39:51.667Z,99.90
2018-10-17T02:42:20.029Z,99.90
2018-10-17T02:44:49.241Z,99.90
2018-10-17T02:47:17.606Z,99.90
2018-10-17T02:49:45.964Z,99.90
2018-10-17T02:52:14.328Z,99.90
2018-10-17T02:54:42.911Z,99.90
2018-10-17T02:57:11.278Z,99.90
2018-10-17T02:59:39.692Z,99.90
2018-10-17T03:02:08.070Z,99.90
2018-10-17T03:04:36.459Z,99.90
2018-10-17T03:07:04.863Z,99.90
2018-10-17T03:09:33.387Z,99.90
2018-10-17T03:12:01.967Z,99.90
2018-10-17T03:14:30.378Z,99.90
2018-10-17T03:16:58.790Z,99.90
2018-10-17T03:19:27.160Z,99.90
2018-10-17T03:21:55.553Z,99.90
2018-10-17T03:24:23.932Z,99.90
2018-10-17T03:26:52.401Z,99.90
2018-10-17T03:29:20.813Z,99.90
2018-10-17T03:31:49.182Z,99.90
2018-10-17T03:34:17.584Z,99.90
2018-10-17T03:36:45.966Z,99.90
2018-10-17T03:39:14.363Z,99.90
2018-10-17T03:41:42.732Z,99.90
2018-10-17T03:44:11.120Z,99.90
2018-10-17T03:46:39.502Z,99.90
2018-10-17T03:49:08.553Z,99.90
2018-10-17T03:51:36.815Z,99.90
2018-10-17T03:54:05.480Z,99.90
2018-10-17T03:56:33.913Z,99.90
2018-10-17T03:59:02.413Z,99.90
2018-10-17T04:01:30.670Z,99.90
2018-10-17T04:03:59.180Z,99.90
2018-10-17T04:06:27.569Z,99.90
2018-10-17T04:08:55.965Z,99.90
2018-10-17T04:11:24.322Z,99.90
2018-10-17T04:13:52.787Z,99.90
2018-10-17T04:16:21.127Z,99.90
2018-10-17T04:18:49.511Z,99.90
2018-10-17T04:21:17.855Z,99.90
2018-10-17T04:23:46.502Z,99.90
2018-10-17T04:26:14.827Z,99.90
2018-10-17T04:28:43.210Z,99.90
2018-10-17T04:31:11.673Z,99.90
2018-10-17T04:33:40.034Z,99.90
2018-10-17T04:36:08.397Z,99.90
2018-10-17T04:38:36.726Z,99.90
2018-10-17T04:41:05.261Z,99.90
2018-10-17T04:43:33.579Z,99.90
2018-10-17T04:46:01.948Z,99.90
2018-10-17T04:48:30.367Z,99.90
2018-10-17T04:50:58.798Z,99.90
2018-10-17T04:53:27.195Z,99.90
2018-10-17T04:55:56.088Z,99.90
2018-10-17T04:58:24.514Z,99.90
2018-10-17T05:00:53.171Z,99.90
2018-10-17T05:03:21.491Z,99.90
2018-10-17T05:05:49.867Z,99.90
2018-10-17T05:08:18.226Z,99.90
2018-10-17T05:10:46.575Z,99.90
2018-10-17T05:13:15.193Z,99.90
2018-10-17T05:15:44.202Z,99.90
2018-10-17T05:18:12.549Z,99.90
2018-10-17T05:20:40.931Z,99.90
2018-10-17T05:23:09.401Z,99.90
2018-10-17T05:25:37.778Z,99.90
2018-10-17T05:28:06.278Z,99.90
2018-10-17T05:30:35.682Z,99.90
2018-10-17T05:33:04.661Z,99.90
2018-10-17T05:35:33.055Z,99.90
2018-10-17T05:38:01.502Z,99.90
2018-10-17T05:40:29.834Z,99.90
2018-10-17T05:42:58.325Z,99.90
2018-10-17T05:45:26.783Z,99.90
2018-10-17T05:47:56.159Z,99.90
2018-10-17T05:50:25.333Z,99.90
2018-10-17T05:52:54.032Z,99.90
2018-10-17T05:55:22.870Z,99.90
2018-10-17T05:57:51.952Z,99.90
2018-10-17T06:00:21.239Z,99.90
2018-10-17T06:02:50.570Z,99.90
2018-10-17T06:05:20.092Z,99.90
2018-10-17T06:07:50.029Z,99.90
2018-10-17T06:10:19.364Z,99.90
2018-10-17T06:12:47.941Z,99.90
2018-10-17T06:15:16.667Z,99.90
2018-10-17T06:17:45.083Z,99.90
2018-10-17T06:20:13.716Z,99.90
2018-10-17T06:22:42.922Z,99.90
2018-10-17T06:25:11.466Z,99.90
2018-10-17T06:27:39.878Z,99.90
2018-10-17T06:30:09.591Z,99.90
2018-10-17T06:32:38.024Z,99.90
2018-10-17T06:35:06.936Z,99.90
2018-10-17T06:37:35.671Z,99.90
2018-10-17T06:40:04.466Z,99.90
2018-10-17T06:42:32.846Z,99.90
2018-10-17T06:45:01.614Z,99.90
2018-10-17T06:47:30.031Z,99.90
2018-10-17T06:49:58.431Z,99.90
2018-10-17T06:52:27.082Z,99.90
2018-10-17T06:54:56.209Z,99.90
2018-10-17T06:57:24.782Z,99.90
2018-10-17T06:59:53.218Z,99.90
2018-10-17T07:02:21.743Z,99.90
2018-10-17T07:04:50.263Z,99.90
2018-10-17T07:07:18.806Z,99.90
2018-10-17T07:09:47.181Z,99.90
2018-10-17T07:12:15.994Z,99.90
2018-10-17T07:14:44.422Z,99.90
2018-10-17T07:17:13.341Z,99.90
2018-10-17T07:19:43.588Z,99.90
2018-10-17T07:22:13.208Z,99.90
2018-10-17T07:24:43.671Z,99.90
2018-10-17T07:27:12.111Z,99.90
2018-10-17T07:29:40.718Z,99.90
2018-10-17T07:32:09.075Z,99.90
2018-10-17T07:34:37.491Z,99.90
2018-10-17T07:37:06.358Z,99.90
2018-10-17T07:39:34.746Z,99.90
2018-10-17T07:42:04.285Z,99.90
2018-10-17T07:44:32.626Z,99.90
2018-10-17T07:47:01.089Z,99.90
2018-10-17T07:49:29.442Z,99.90
2018-10-17T07:51:57.878Z,99.90
2018-10-17T07:54:26.240Z,99.90
2018-10-17T07:56:54.747Z,99.90
2018-10-17T07:59:23.224Z,99.90
2018-10-17T08:01:51.599Z,99.90
2018-10-17T08:04:19.942Z,99.90
2018-10-17T08:06:48.460Z,99.90
2018-10-17T08:09:16.852Z,99.90
2018-10-17T08:11:45.227Z,99.90
2018-10-17T08:14:13.595Z,99.90
2018-10-17T08:16:42.031Z,99.90
2018-10-17T08:19:11.492Z,99.90
2018-10-17T08:21:39.894Z,99.90
2018-10-17T08:24:08.302Z,99.90
2018-10-17T08:26:36.706Z,99.90
2018-10-17T08:29:05.120Z,99.90
2018-10-17T08:31:33.500Z,99.90
2018-10-17T08:34:01.912Z,99.90
2018-10-17T08:36:30.631Z,99.90
2018-10-17T08:38:58.794Z,99.90
2018-10-17T08:41:27.252Z,99.90
2018-10-17T08:43:55.737Z,99.90
2018-10-17T08:46:24.183Z,99.90
2018-10-17T08:48:52.613Z,99.90
2018-10-17T08:51:21.066Z,99.90
2018-10-17T08:53:49.519Z,99.90
2018-10-17T08:56:18.316Z,99.90
2018-10-17T08:58:46.634Z,99.90
2018-10-17T09:01:15.054Z,99.90
2018-10-17T09:03:43.463Z,99.90
2018-10-17T09:06:11.899Z,99.90
2018-10-17T09:08:40.218Z,99.90
2018-10-17T09:11:08.598Z,99.90
2018-10-17T09:13:37.054Z,99.90
2018-10-17T09:16:06.583Z,99.90
2018-10-17T09:18:34.939Z,99.90
2018-10-17T09:21:03.872Z,99.90
2018-10-17T09:23:32.006Z,99.90
2018-10-17T09:26:00.460Z,99.90
2018-10-17T09:28:28.822Z,99.90
2018-10-17T09:30:57.240Z,99.90
2018-10-17T09:33:25.643Z,99.90
2018-10-17T09:35:54.062Z,99.90
2018-10-17T09:38:22.421Z,99.90
2018-10-17T09:40:50.800Z,99.90
2018-10-17T09:43:19.175Z,99.90
2018-10-17T09:45:47.551Z,99.90
2018-10-17T09:48:16.142Z,99.90
2018-10-17T09:50:44.423Z,99.90
2018-10-17T09:53:12.912Z,99.90
2018-10-17T09:55:41.463Z,99.90
2018-10-17T09:58:10.409Z,99.90
2018-10-17T10:00:44.261Z,99.90
2018-10-17T10:03:12.698Z,99.90
2018-10-17T10:05:41.239Z,99.90
2018-10-17T10:08:09.823Z,99.90
2018-10-17T10:10:38.251Z,99.90
2018-10-17T10:13:06.697Z,99.90
2018-10-17T10:15:35.130Z,99.90
2018-10-17T10:18:03.532Z,99.90
2018-10-17T10:20:31.929Z,99.90
2018-10-17T10:23:00.673Z,99.90
2018-10-17T10:25:29.106Z,99.90
2018-10-17T10:27:57.551Z,99.90
2018-10-17T10:30:25.965Z,99.90
2018-10-17T10:32:54.387Z,99.90
2018-10-17T10:35:22.870Z,99.90
2018-10-17T10:37:52.427Z,99.90
2018-10-17T10:40:20.831Z,99.90
2018-10-17T10:42:49.278Z,99.90
2018-10-17T10:45:17.800Z,99.90
2018-10-17T10:47:46.126Z,99.90
2018-10-17T10:50:14.636Z,99.90
2018-10-17T10:52:43.052Z,99.90
2018-10-17T10:55:11.478Z,99.90
2018-10-17T10:57:40.203Z,99.90
2018-10-17T11:00:08.750Z,99.90
2018-10-17T11:02:37.105Z,99.90
2018-10-17T11:05:05.759Z,99.90
2018-10-17T11:07:34.151Z,99.90
2018-10-17T11:10:02.618Z,99.90
2018-10-17T11:12:31.064Z,99.90
2018-10-17T11:14:59.605Z,99.90
2018-10-17T11:17:27.881Z,99.90
2018-10-17T11:19:56.292Z,99.90
2018-10-17T11:22:24.679Z,99.90
2018-10-17T11:24:53.114Z,99.90
2018-10-17T11:27:21.559Z,99.90
2018-10-17T11:29:49.959Z,99.90
2018-10-17T11:32:18.374Z,99.90
2018-10-17T11:34:46.783Z,99.90
2018-10-17T11:37:15.273Z,99.90
2018-10-17T11:39:43.661Z,99.90
2018-10-17T11:42:12.115Z,99.90
2018-10-17T11:44:40.482Z,99.90
2018-10-17T11:47:09.245Z,99.90
2018-10-17T11:49:37.551Z,99.90
2018-10-17T11:52:06.072Z,99.90
2018-10-17T11:54:34.446Z,99.90
2018-10-17T11:57:03.025Z,99.90
2018-10-17T11:59:31.391Z,99.90
2018-10-17T12:01:59.810Z,99.90
2018-10-17T12:04:28.433Z,99.90
2018-10-17T12:06:56.555Z,99.90
2018-10-17T12:09:24.995Z,99.90
2018-10-17T12:11:53.478Z,99.90
2018-10-17T12:14:21.876Z,99.90
2018-10-17T12:16:50.258Z,99.90
2018-10-17T12:19:18.943Z,99.90
2018-10-17T12:21:47.343Z,99.90
2018-10-17T12:24:16.065Z,99.90
2018-10-17T12:26:44.271Z,99.90
2018-10-17T12:29:12.706Z,99.90
2018-10-17T12:31:41.095Z,99.90
2018-10-17T12:34:09.475Z,99.90
2018-10-17T12:36:37.863Z,99.90
2018-10-17T12:39:09.359Z,99.90
2018-10-17T12:41:37.753Z,99.90
2018-10-17T12:44:06.233Z,99.90
2018-10-17T12:46:34.611Z,99.90
2018-10-17T12:49:03.020Z,99.90
2018-10-17T12:51:31.527Z,99.90
2018-10-17T12:53:59.923Z,99.90
2018-10-17T12:56:28.290Z,99.90
2018-10-17T12:58:56.699Z,99.90
2018-10-17T13:01:25.097Z,99.90
2018-10-17T13:03:53.466Z,99.90
2018-10-17T13:06:21.835Z,99.90
2018-10-17T13:08:50.222Z,99.90
2018-10-17T13:11:18.590Z,99.90
2018-10-17T13:13:46.967Z,99.90
2018-10-17T13:16:15.331Z,99.90
2018-10-17T13:18:43.721Z,99.90
2018-10-17T13:21:12.463Z,99.90
2018-10-17T13:23:41.873Z,99.90
2018-10-17T13:26:10.263Z,99.90
2018-10-17T13:28:38.831Z,99.90
2018-10-17T13:31:07.222Z,99.90
2018-10-17T13:33:35.622Z,99.90
2018-10-17T13:36:04.032Z,99.90
2018-10-17T13:38:32.479Z,99.90
2018-10-17T13:41:00.851Z,99.90
2018-10-17T13:43:29.274Z,99.90
2018-10-17T13:45:57.743Z,99.90
2018-10-17T13:48:26.129Z,99.90
2018-10-17T13:50:54.625Z,99.90
2018-10-17T13:53:23.043Z,99.90
2018-10-17T13:55:51.577Z,99.90
2018-10-17T13:58:20.114Z,99.90
2018-10-17T14:00:48.496Z,99.90
2018-10-17T14:03:16.897Z,99.90
2018-10-17T14:05:45.534Z,99.90
2018-10-17T14:08:14.566Z,99.90
2018-10-17T14:10:43.007Z,99.90
2018-10-17T14:13:11.460Z,99.90
2018-10-17T14:15:39.816Z,99.90
2018-10-17T14:20:54.089Z,99.90
2018-10-17T14:23:23.294Z,99.90
2018-10-17T14:25:51.623Z,99.90
2018-10-17T14:28:20.053Z,99.90
2018-10-17T14:30:48.487Z,99.90
2018-10-17T14:33:16.954Z,99.90
2018-10-17T14:35:45.347Z,99.90
2018-10-17T14:38:13.784Z,99.90
2018-10-17T14:40:42.195Z,99.90
2018-10-17T14:43:10.641Z,99.90
2018-10-17T14:45:39.078Z,99.70
2018-10-17T14:48:07.809Z,99.50
2018-10-17T14:50:36.186Z,99.50
2018-10-17T14:53:04.749Z,98.00
2018-10-17T14:55:33.287Z,98.40
2018-10-17T14:58:01.661Z,98.50
2018-10-17T15:00:30.054Z,99.00
2018-10-17T15:02:58.516Z,98.70
2018-10-17T15:05:26.868Z,99.00
2018-10-17T15:07:55.312Z,99.80
2018-10-17T15:10:23.909Z,99.60
2018-10-17T15:12:52.275Z,99.50
2018-10-17T15:15:20.827Z,99.20
2018-10-17T15:17:49.361Z,99.20
2018-10-17T15:20:17.925Z,99.90
2018-10-17T15:22:46.335Z,99.90
2018-10-17T15:25:14.755Z,99.90
2018-10-17T15:27:43.138Z,99.90
2018-10-17T15:30:11.747Z,99.90
2018-10-17T15:32:40.090Z,99.90
2018-10-17T15:35:09.102Z,99.90
2018-10-17T15:37:37.629Z,99.90
2018-10-17T15:40:06.168Z,99.90
2018-10-17T15:42:34.623Z,99.90
2018-10-17T15:45:03.130Z,99.90
2018-10-17T15:47:31.547Z,99.90
2018-10-17T15:50:00.022Z,99.90
2018-10-17T15:52:28.517Z,99.90
2018-10-17T15:54:57.021Z,99.90
2018-10-17T15:57:25.423Z,99.90
2018-10-17T15:59:53.899Z,99.90
2018-10-17T16:02:22.378Z,99.90
2018-10-17T16:04:50.754Z,99.90
2018-10-17T16:07:19.191Z,99.90
2018-10-17T16:09:48.265Z,99.90
2018-10-17T16:12:16.767Z,99.90
2018-10-17T16:14:45.167Z,99.90
2018-10-17T16:17:13.648Z,99.90
2018-10-17T16:19:42.011Z,99.90
2018-10-17T16:22:10.612Z,99.90
2018-10-17T16:24:39.023Z,99.90
2018-10-17T16:27:07.455Z,99.90
2018-10-17T16:29:35.915Z,99.90
2018-10-17T16:32:04.621Z,99.90
2018-10-17T16:34:33.072Z,99.90
2018-10-17T16:37:01.690Z,99.90
2018-10-17T16:39:30.087Z,99.90
2018-10-17T16:41:58.524Z,99.90
2018-10-17T16:44:26.961Z,99.90
2018-10-17T16:46:56.022Z,99.90
2018-10-17T16:49:24.776Z,99.90
2018-10-17T16:51:53.183Z,99.90
2018-10-17T16:54:21.571Z,99.90
2018-10-17T16:56:50.638Z,99.90
2018-10-17T16:59:19.021Z,99.90
2018-10-17T17:01:50.426Z,99.90
2018-10-17T17:04:18.841Z,99.90
2018-10-17T17:06:47.231Z,99.90
2018-10-17T17:09:15.743Z,99.90
2018-10-17T17:11:44.129Z,99.90
2018-10-17T17:14:12.504Z,99.90
2018-10-17T17:16:40.991Z,99.90
2018-10-17T17:19:09.547Z,99.90
2018-10-17T17:21:37.960Z,99.90
2018-10-17T17:24:06.428Z,99.90
2018-10-17T17:26:34.879Z,99.90
2018-10-17T17:29:06.121Z,99.90
2018-10-17T17:31:34.518Z,99.90
2018-10-17T17:34:02.961Z,99.90
2018-10-17T17:36:31.680Z,99.90
2018-10-17T17:38:59.980Z,99.90
2018-10-17T17:41:28.406Z,99.90
2018-10-17T17:43:57.016Z,99.90
2018-10-17T17:46:25.572Z,99.90
2018-10-17T17:48:53.993Z,99.90
2018-10-17T17:51:22.473Z,99.90
2018-10-17T17:53:50.984Z,99.90
2018-10-17T17:56:19.407Z,99.90
2018-10-17T17:58:47.869Z,99.90
2018-10-17T18:01:16.338Z,99.90
2018-10-17T18:03:44.788Z,99.90
2018-10-17T18:06:13.199Z,99.90
2018-10-17T18:08:41.608Z,99.90
2018-10-17T18:11:20.849Z,99.90
2018-10-17T18:13:49.945Z,99.90
2018-10-17T18:16:18.425Z,99.90
2018-10-17T18:18:46.879Z,99.90
2018-10-17T18:21:15.620Z,99.90
2018-10-17T18:23:44.414Z,99.90
2018-10-17T18:26:13.143Z,99.90
2018-10-17T18:28:42.162Z,99.90
2018-10-17T18:31:10.849Z,99.90
2018-10-17T18:33:39.341Z,99.90
2018-10-17T18:36:07.804Z,99.90
2018-10-17T18:38:36.323Z,99.90
2018-10-17T18:41:04.811Z,99.90
2018-10-17T18:43:33.242Z,99.90
2018-10-17T18:46:01.687Z,99.90
2018-10-17T18:48:30.129Z,99.90
2018-10-17T18:50:58.543Z,99.90
2018-10-17T18:53:27.104Z,99.90
2018-10-17T18:55:55.529Z,99.90
2018-10-17T18:58:24.167Z,99.90
2018-10-17T19:00:52.567Z,99.90
2018-10-17T19:03:20.954Z,99.90
2018-10-17T19:05:49.411Z,99.90
2018-10-17T19:08:17.884Z,99.90
2018-10-17T19:10:46.288Z,99.90
2018-10-17T19:13:14.697Z,99.90
2018-10-17T19:15:43.706Z,99.90
2018-10-17T19:18:12.109Z,99.90
2018-10-17T19:20:40.534Z,99.90
2018-10-17T19:23:08.929Z,99.90
2018-10-17T19:25:37.372Z,99.90
2018-10-17T19:28:07.079Z,99.90
2018-10-17T19:30:35.488Z,99.90
2018-10-17T19:33:04.007Z,99.90
2018-10-17T19:35:32.452Z,99.90
2018-10-17T19:38:00.997Z,99.90
2018-10-17T19:40:29.450Z,99.90
2018-10-17T19:42:57.913Z,99.90
2018-10-17T19:45:26.385Z,99.90
2018-10-17T19:47:54.895Z,99.90
2018-10-17T19:50:23.238Z,99.90
2018-10-17T19:52:51.683Z,99.90
2018-10-17T19:55:20.160Z,99.90
2018-10-17T19:57:48.588Z,99.90
2018-10-17T20:00:17.073Z,99.90
2018-10-17T20:02:45.514Z,99.90
2018-10-17T20:05:13.984Z,99.90
2018-10-17T20:07:42.428Z,99.90
2018-10-17T20:10:10.837Z,99.90
2018-10-17T20:12:39.279Z,99.90
2018-10-17T20:15:07.961Z,99.90
2018-10-17T20:17:36.322Z,99.90
2018-10-17T20:20:05.548Z,99.90
2018-10-17T20:22:34.047Z,99.90
2018-10-17T20:25:02.991Z,99.90
2018-10-17T20:27:31.435Z,99.90
2018-10-17T20:29:59.965Z,99.90
2018-10-17T20:32:28.444Z,99.90
2018-10-17T20:34:56.855Z,99.90
2018-10-17T20:37:25.310Z,99.90
2018-10-17T20:39:53.726Z,99.90
2018-10-17T20:42:22.266Z,99.90
2018-10-17T20:44:50.732Z,99.90
2018-10-17T20:47:19.260Z,99.90
2018-10-17T20:49:47.824Z,99.90
2018-10-17T20:52:16.507Z,99.90
2018-10-17T20:54:45.055Z,99.90
2018-10-17T20:57:13.698Z,99.90
2018-10-17T20:59:42.329Z,99.90
2018-10-17T21:02:10.868Z,99.90
2018-10-17T21:04:39.816Z,99.90
2018-10-17T21:07:09.011Z,99.90
2018-10-17T21:09:37.451Z,99.90
2018-10-17T21:12:06.003Z,99.90
2018-10-17T21:14:34.571Z,99.90
2018-10-17T21:17:02.999Z,99.90
2018-10-17T21:19:31.531Z,99.90
2018-10-17T21:22:00.166Z,99.90
2018-10-17T21:24:28.844Z,99.90
2018-10-17T21:26:57.628Z,99.90
2018-10-17T21:29:26.083Z,99.90
2018-10-17T21:31:54.613Z,99.90
2018-10-17T21:34:23.151Z,99.90
2018-10-17T21:36:52.111Z,99.90
2018-10-17T21:39:20.587Z,99.90
2018-10-17T21:41:49.104Z,99.90
2018-10-17T21:44:17.680Z,99.90
2018-10-17T21:46:46.241Z,99.90
2018-10-17T21:49:14.727Z,99.90
2018-10-17T21:51:43.172Z,99.90
2018-10-17T21:54:11.602Z,99.90
2018-10-17T21:56:40.136Z,99.90
2018-10-17T21:59:08.788Z,99.90
2018-10-17T22:01:37.930Z,99.90
2018-10-17T22:04:06.541Z,99.90
2018-10-17T22:06:35.083Z,99.90
2018-10-17T22:09:04.732Z,99.90
2018-10-17T22:11:33.311Z,99.90
2018-10-17T22:14:01.946Z,99.90
2018-10-17T22:16:35.894Z,99.90
2018-10-17T22:19:04.506Z,99.90
2018-10-17T22:21:32.936Z,99.90
2018-10-17T22:24:01.364Z,99.90
2018-10-17T22:26:30.000Z,99.90
2018-10-17T22:28:58.696Z,99.90
2018-10-17T22:31:27.259Z,99.90
2018-10-17T22:33:55.798Z,99.90
2018-10-17T22:36:24.261Z,99.90
2018-10-17T22:38:53.041Z,99.90
2018-10-17T22:41:21.612Z,99.90
2018-10-17T22:43:50.028Z,99.90
2018-10-17T22:46:18.654Z,99.90
2018-10-17T22:48:47.228Z,99.90
2018-10-17T22:51:15.817Z,99.90
2018-10-17T22:53:44.409Z,99.90
2018-10-17T22:56:13.074Z,99.90
2018-10-17T22:58:41.568Z,99.90
2018-10-17T23:01:10.107Z,99.90
2018-10-17T23:03:38.828Z,99.90
2018-10-17T23:06:07.428Z,99.90
2018-10-17T23:08:35.988Z,99.90
2018-10-17T23:11:05.160Z,99.90
2018-10-17T23:13:33.880Z,99.90
2018-10-17T23:16:02.643Z,99.90
2018-10-17T23:18:31.334Z,99.90
2018-10-17T23:21:00.008Z,99.90
2018-10-17T23:23:28.591Z,99.90
2018-10-17T23:25:57.510Z,99.90
2018-10-17T23:28:26.218Z,99.90
2018-10-17T23:30:54.929Z,99.90
2018-10-17T23:33:23.550Z,99.90
2018-10-17T23:35:52.147Z,99.90
2018-10-17T23:38:20.699Z,99.90
2018-10-17T23:40:49.341Z,99.90
2018-10-17T23:43:18.026Z,99.90
2018-10-17T23:45:46.638Z,99.90
2018-10-17T23:48:15.412Z,99.90
2018-10-17T23:50:43.937Z,99.90
2018-10-17T23:53:12.496Z,99.90
2018-10-17T23:55:41.220Z,99.90
2018-10-17T23:58:09.912Z,99.90
